Tiempo atmosférico en la estación meteorológica de Albox, Almería (508 m.)



Fecha
DESCASC
Temp. máxima en grados centígrados (hora)
DESCASC
Temp. mínima en grados centígrados (hora)
DESCASC
Temp. media en grados centígrados
DESCASC
Racha de viento máxima en m/sg (hora)
DESCASC
Velocidad máxima media en intervalos de 10 minutos(hora)
DESCASC
Precipitaciones diarias en mm
DESCASC
Precipitaciones de 00:00 a 06:00 en mm
DESCASC
Precipitaciones de 06:00 a 12:00 en mm
DESCASC
Precipitaciones de 12:00 a 18:00 en mm
DESCASC
Precipitaciones de 18:00 a 24:00 en mm
DESCASC
06-12-2018 24.2 (14:10) 11 (22:10) 17.6 5.83 (16:30) 4.17 (16:30) 0 0 0 0 0
05-12-2018 24 (14:50) 11.2 (06:40) 17.6 5 (21:50) 3.61 (00:30) 0 0 0 0 0
04-12-2018 23.9 (14:10) 11.4 (08:00) 17.6 5 (02:50) 3.89 (02:50) 0 0 0 0 0
03-12-2018 25.9 (15:10) 13.4 (00:00) 19.6 12.5 (03:20) 10.28 (03:30) 0 0 0 0 0
02-12-2018 24.6 (14:40) 9.4 (00:00) 17 11.11 (22:00) 8.89 (22:20) 0 0 0 0 0
01-12-2018 18.8 (15:20) 4.4 (00:00) 11.6 11.67 (22:40) 7.5 (22:50) 0 0 0 0 0
30-11-2018 18.1 (15:30) 7.9 (00:00) 13 16.39 (13:20) 12.5 (09:50) 0 0 0 0 0
29-11-2018 19.2 (13:20) 7.3 (00:00) 13.3 6.39 (23:50) 4.17 (02:40) 0 0 0 0 0
28-11-2018 20.4 (14:10) 6.3 (00:00) 13.3 5 (05:40) 3.89 (05:40) 0 0 0 0 0
27-11-2018 19.2 (15:30) 7.4 (00:00) 13.3 15.28 (00:50) 11.94 (00:10) 0 0 0 0 0
26-11-2018 16.8 (02:40) 9.2 (23:00) 13 24.17 (05:00) 13.61 (04:50) 0 0 0 0 0
25-11-2018 18.5 (14:00) 7.2 (00:00) 12.8 18.61 (15:40) 11.11 (15:00) 0 0 0 0 0
24-11-2018 15.7 (14:20) 6.9 (00:00) 11.3 9.72 (13:20) 7.22 (13:00) 0 0 0 0 0
23-11-2018 16.1 (15:30) 9.7 (00:00) 12.9 8.89 (11:40) 6.67 (17:00) 1 0 1 0 0
22-11-2018 14.4 (15:00) 10.2 (00:00) 12.3 4.72 (11:50) 3.33 (11:40) 0.4 0 0.4 0 0
21-11-2018 17.3 (15:30) 8.5 (00:00) 12.9 9.17 (01:20) 5.56 (01:20) 0 0 0 0 0
20-11-2018 18.1 (14:30) 9.2 (00:00) 13.7 19.17 (17:40) 12.5 (16:50) 0.2 0 0 0.2 0
19-11-2018 14.7 (11:40) 9.7 (00:00) 12.2 10 (14:40) 6.67 (11:20) 3.6 3.2 0.2 0 0.2
18-11-2018 14.1 (12:00) 10.3 (00:00) 12.2 8.89 (21:30) 5 (12:20) 3.8 0 0 2.4 1.4
17-11-2018 15.6 (14:30) 11.8 (00:00) 13.7 5 (12:00) 2.78 (12:20) 4.6 0 0 0.2 4.4
16-11-2018 13.7 (17:00) 11.7 (00:00) 12.7 6.11 (13:50) 3.61 (13:50) 26.8 0 5.2 19.6 2
15-11-2018 17 (14:50) 11.5 (00:00) 14.3 6.39 (03:40) 4.72 (03:40) 22.6 22.4 0 0.2 0
14-11-2018 16 (16:00) 12.5 (00:00) 14.3 10 (23:40) 4.44 (17:10) 27.8 3.8 8.8 0 15.2
13-11-2018 21.2 (13:30) 10.5 (00:00) 15.9 8.33 (13:20) 5 (12:30) 0 0 0 0 0
12-11-2018 20.9 (14:00) 8.4 (00:00) 14.6 5.28 (14:10) 3.61 (14:40) 0 0 0 0 0
11-11-2018 22.4 (13:10) 10.5 (00:00) 16.4 8.06 (14:20) 5.83 (00:20) 0 0 0 0 0
10-11-2018 24.1 (16:00) 10.4 (00:00) 17.3 16.94 (02:10) 13.33 (01:40) 0 0 0 0 0
09-11-2018 16 (15:30) 8.7 (00:00) 12.3 20.56 (10:40) 14.72 (11:30) 0 0 0 0 0

Gráficas

Temp. máximas Temp. mínimas Temp. medias Precipitaciones Rachas de viento máximas Velocidades máximas media en intervalos de 10 minutos

Datos horarios

Fecha y hora oficial Temperatura (ºC) Velocidad del viento (km/h) Dirección del viento Racha (km/h) Dirección de racha Precipitación (mm) Presión (hPa) Tendencia (hPa) Humedad (%)
2018-12-08 23:00:00 9.7 7 Noroeste 9 Noroeste 0 -- -- 87
2018-12-08 22:00:00 10.3 6 Noroeste 9 Noroeste 0 -- -- 86
2018-12-08 21:00:00 10.8 5 Norte 7 Norte 0 -- -- 84
2018-12-08 20:00:00 11.4 5 Nordeste 12 Este 0 -- -- 80
2018-12-08 19:00:00 12.5 6 Este 14 Nordeste 0 -- -- 72
2018-12-08 18:00:00 14.1 5 Este 14 Este 0 -- -- 67
2018-12-08 17:00:00 16.8 9 Este 18 Este 0 -- -- 59
2018-12-08 16:00:00 18.7 12 Este 19 Este 0 -- -- 51
2018-12-08 15:00:00 20.3 9 Sudeste 22 Este 0 -- -- 42
2018-12-08 14:00:00 21.1 12 Este 19 Este 0 -- -- 40
2018-12-08 13:00:00 20.3 6 Este 10 Este 0 -- -- 42
2018-12-08 12:00:00 19.1 2 Sudoeste 8 Sudoeste 0 -- -- 41
2018-12-08 11:00:00 16.8 3 Sudoeste 10 Este 0 -- -- 49
2018-12-08 10:00:00 14.8 6 Nordeste 14 Nordeste 0 -- -- 52
2018-12-08 09:00:00 11.8 8 Norte 13 Nordeste 0 -- -- 54
2018-12-08 08:00:00 10.8 8 Nordeste 15 Oeste 0 -- -- 59
2018-12-08 07:00:00 13.6 14 Oeste 24 Oeste 0 -- -- 49
2018-12-08 06:00:00 13.2 10 Oeste 19 Oeste 0 -- -- 50
2018-12-08 05:00:00 13.7 17 Noroeste 27 Oeste 0 -- -- 46
2018-12-08 04:00:00 12.8 11 Oeste 22 Sudoeste 0 -- -- 50
2018-12-08 03:00:00 13.6 18 Sudoeste 24 Sudoeste 0 -- -- 48
2018-12-08 02:00:00 13.1 12 Oeste 19 Sudoeste 0 -- -- 48
2018-12-08 01:00:00 12.4 14 Sudoeste 24 Sudoeste 0 -- -- 52
2018-12-08 00:00:00 14.7 8 Oeste 27 Oeste 0 -- -- 44
2018-12-07 23:00:00 15.2 20 Oeste 31 Norte 0 -- -- 40
2018-12-07 22:00:00 14.8 16 Noroeste 35 Oeste 0 -- -- 40
2018-12-07 21:00:00 15.3 25 Oeste 30 Oeste 0 -- -- 42
2018-12-07 20:00:00 12.5 18 Oeste 24 Oeste 0 -- -- 59
2018-12-07 19:00:00 12.5 4 Noroeste 7 Nordeste 0 -- -- 84
2018-12-07 18:00:00 15.4 3 Sudeste 9 Oeste 0 -- -- 73
2018-12-07 17:00:00 19.7 4 Sudeste 10 Sudeste 0 -- -- 59
2018-12-07 16:00:00 20.5 8 Sudeste 13 Sudeste 0 -- -- 52
2018-12-07 15:00:00 20.8 5 Sudeste 13 Este 0 -- -- 46
2018-12-07 14:00:00 20.2 8 Este 15 Este 0 -- -- 44
2018-12-07 13:00:00 19.9 7 Sudeste 12 Este 0 -- -- 46
2018-12-07 12:00:00 18.4 3 Sudeste 7 Sudeste 0 -- -- 51
2018-12-07 11:00:00 15.1 5 Sudoeste 9 Sudoeste 0 -- -- 55
2018-12-07 10:00:00 12 4 Oeste 9 Noroeste 0 -- -- 70
2018-12-07 09:00:00 9.8 10 Norte 13 Norte 0 -- -- 72
2018-12-07 08:00:00 8.8 9 Noroeste 13 Noroeste 0 -- -- 73
2018-12-07 07:00:00 9.6 10 Noroeste 13 Noroeste 0 -- -- 71
2018-12-07 06:00:00 9 7 Norte 12 Nordeste 0 -- -- 75
2018-12-07 05:00:00 9.5 8 Norte 12 Norte 0 -- -- 72
2018-12-07 04:00:00 10 8 Norte 11 Norte 0 -- -- 70
2018-12-07 03:00:00 10.5 5 Noroeste 15 Noroeste 0 -- -- 68
2018-12-07 02:00:00 10.1 10 Noroeste 13 Noroeste 0 -- -- 70
2018-12-07 01:00:00 9.5 5 Noroeste 10 Noroeste 0 -- -- 75
2018-12-07 00:00:00 11.1 4 Noroeste 17 Noroeste 0 -- -- 71
2018-12-06 23:00:00 11.5 13 Noroeste 15 Noroeste 0 -- -- 71
2018-12-06 22:00:00 11.1 7 Norte 11 Norte 0 -- -- 75
2018-12-06 21:00:00 12.2 8 Noroeste 10 Noroeste 0 -- -- 71
2018-12-06 20:00:00 13.7 7 Noroeste 9 Noroeste 0 -- -- 66
2018-12-06 19:00:00 15 2 Norte 6 Este 0 -- -- 58
2018-12-06 18:00:00 16.2 6 Este 18 Este 0 -- -- 56
2018-12-06 17:00:00 20.1 11 Este 21 Este 0 -- -- 46
2018-12-06 16:00:00 22.9 9 Este 19 Sudeste 0 -- -- 40
2018-12-06 15:00:00 24.2 9 Sudeste 16 Este 0 -- -- 36
2018-12-06 14:00:00 24 9 Este 17 Este 0 -- -- 36
2018-12-06 13:00:00 23 10 Este 14 Este 0 -- -- 40
2018-12-06 12:00:00 22.9 4 Sur 8 Sur 0 -- -- 38
2018-12-06 11:00:00 19.9 0 Calma 5 Sudoeste 0 -- -- 44
2018-12-06 10:00:00 16.8 4 Oeste 10 Norte 0 -- -- 53
2018-12-06 09:00:00 13.1 7 Norte 13 Oeste 0 -- -- 58
2018-12-06 08:00:00 12.8 6 Noroeste 15 Oeste 0 -- -- 54
2018-12-06 07:00:00 12.8 10 Noroeste 15 Noroeste 0 -- -- 55
2018-12-06 06:00:00 13.8 7 Noroeste 17 Noroeste 0 -- -- 54
2018-12-06 05:00:00 13.3 10 Noroeste 15 Noroeste 0 -- -- 54
2018-12-06 04:00:00 13.5 9 Noroeste 15 Noroeste 0 -- -- 52
2018-12-06 03:00:00 14 13 Noroeste 15 Noroeste 0 -- -- 50
2018-12-06 02:00:00 14.3 6 Oeste 17 Oeste 0 -- -- 51
2018-12-06 01:00:00 14.3 9 Noroeste 15 Noroeste 0 -- -- 51
2018-12-06 00:00:00 14.5 11 Noroeste 15 Noroeste 0 -- -- 52
2018-12-05 23:00:00 14.3 11 Noroeste 16 Noroeste 0 -- -- 57
2018-12-05 22:00:00 14.5 6 Noroeste 18 Noroeste 0 -- -- 59
2018-12-05 21:00:00 14.6 9 Norte 14 Norte 0 -- -- 63
2018-12-05 20:00:00 14.9 8 Noroeste 12 Noroeste 0 -- -- 68
2018-12-05 19:00:00 15.9 10 Noroeste 12 Noroeste 0 -- -- 67
2018-12-05 18:00:00 19.2 3 Sur 5 Este 0 -- -- 51
2018-12-05 17:00:00 22.3 4 Sudeste 9 Sudeste 0 -- -- 46
2018-12-05 16:00:00 23.4 5 Sudeste 11 Sur 0 -- -- 43
2018-12-05 15:00:00 24 5 Sur 12 Sudeste 0 -- -- 41
2018-12-05 14:00:00 23.7 5 Sudeste 13 Sudeste 0 -- -- 43
2018-12-05 13:00:00 23 5 Sudeste 10 Sudeste 0 -- -- 42
2018-12-05 12:00:00 21.4 3 Sur 7 Sudoeste 0 -- -- 47
2018-12-05 11:00:00 18.2 4 Sudoeste 7 Oeste 0 -- -- 57
2018-12-05 10:00:00 14.7 4 Oeste 11 Noroeste 0 -- -- 66
2018-12-05 09:00:00 12.4 10 Noroeste 15 Norte 0 -- -- 66
2018-12-05 08:00:00 11.7 10 Norte 14 Noroeste 0 -- -- 66
2018-12-05 07:00:00 11.6 10 Norte 13 Norte 0 -- -- 66
2018-12-05 06:00:00 11.7 7 Norte 15 Noroeste 0 -- -- 66
2018-12-05 05:00:00 11.8 10 Noroeste 13 Noroeste 0 -- -- 64
2018-12-05 04:00:00 11.5 9 Norte 16 Noroeste 0 -- -- 68
2018-12-05 03:00:00 12.8 10 Noroeste 15 Norte 0 -- -- 65
2018-12-05 02:00:00 12.7 9 Norte 15 Noroeste 0 -- -- 67
2018-12-05 01:00:00 12.6 12 Noroeste 16 Noroeste 0 -- -- 71
2018-12-05 00:00:00 12.7 12 Noroeste 15 Noroeste 0 -- -- 70
2018-12-04 23:00:00 12.3 4 Oeste 15 Norte 0 -- -- 74
2018-12-04 22:00:00 13.4 12 Noroeste 15 Norte 0 -- -- 70
2018-12-04 21:00:00 13.6 10 Norte 13 Norte 0 -- -- 72
2018-12-04 20:00:00 14.3 5 Norte 11 Noroeste 0 -- -- 70
2018-12-04 19:00:00 15.7 5 Noroeste 8 Noroeste 0 -- -- 63
2018-12-04 18:00:00 18 2 Nordeste 8 Este 0 -- -- 58
2018-12-04 17:00:00 20.6 7 Este 13 Este 0 -- -- 51
2018-12-04 16:00:00 22.2 10 Este 17 Este 0 -- -- 48
2018-12-04 15:00:00 23.2 11 Este 18 Sudeste 0 -- -- 42
2018-12-04 14:00:00 23.8 9 Sudeste 14 Sudeste 0 -- -- 40
2018-12-04 13:00:00 23.3 7 Sudeste 10 Este 0 -- -- 45
2018-12-04 12:00:00 22.6 8 Este 12 Sudeste 0 -- -- 43
2018-12-04 11:00:00 19.7 0 Calma 3 Oeste 0 -- -- 53
2018-12-04 10:00:00 15.1 4 Oeste 12 Noroeste 0 -- -- 64
2018-12-04 09:00:00 12.7 9 Noroeste 12 Noroeste 0 -- -- 64
2018-12-04 08:00:00 11.4 6 Noroeste 9 Noroeste 0 -- -- 68
2018-12-04 07:00:00 12.1 4 Noroeste 12 Noroeste 0 -- -- 66
2018-12-04 06:00:00 12.8 8 Noroeste 16 Noroeste 0 -- -- 64
2018-12-04 05:00:00 12.6 10 Noroeste 16 Norte 0 -- -- 65
2018-12-04 04:00:00 12.3 4 Noroeste 16 Noroeste 0 -- -- 67
2018-12-04 03:00:00 13.4 11 Noroeste 18 Noroeste 0 -- -- 63
2018-12-04 02:00:00 13.1 6 Noroeste 14 Norte 0 -- -- 63
2018-12-04 01:00:00 13.4 9 Norte 15 Noroeste 0 -- -- 62
2018-12-04 00:00:00 13.5 13 Noroeste 15 Noroeste 0 -- -- 62
2018-12-03 23:00:00 14.3 10 Noroeste 14 Norte 0 -- -- 60
2018-12-03 22:00:00 13.8 10 Norte 13 Nordeste 0 -- -- 68
2018-12-03 21:00:00 14.7 4 Norte 9 Norte 0 -- -- 69
2018-12-03 20:00:00 15.1 4 Nordeste 8 Nordeste 0 -- -- 65
2018-12-03 19:00:00 16.4 6 Noroeste 8 Noroeste 0 -- -- 67
2018-12-03 18:00:00 19.9 3 Oeste 5 Sudeste 0 -- -- 54
2018-12-03 17:00:00 23.7 3 Sur 9 Sur 0 -- -- 46
2018-12-03 16:00:00 25.4 5 Sudeste 11 Sur 0 -- -- 40
2018-12-03 15:00:00 25.6 5 Sudeste 10 Sudeste 0 -- -- 36
2018-12-03 14:00:00 25.4 5 Sudeste 12 Sur 0 -- -- 35
2018-12-03 13:00:00 24.7 4 Sur 9 Sur 0 -- -- 39
2018-12-03 12:00:00 21.9 4 Noroeste 9 Oeste 0 -- -- 42
2018-12-03 11:00:00 18.1 2 Noroeste 8 Noroeste 0 -- -- 55
2018-12-03 10:00:00 14.7 9 Noroeste 13 Oeste 0 -- -- 57
2018-12-03 09:00:00 14.3 8 Noroeste 19 Oeste 0 -- -- 57
2018-12-03 08:00:00 14.2 6 Norte 14 Noroeste 0 -- -- 55
2018-12-03 07:00:00 14.2 4 Noroeste 13 Noroeste 0 -- -- 54
2018-12-03 06:00:00 14.5 8 Noroeste 19 Oeste 0 -- -- 55
2018-12-03 05:00:00 14.7 16 Oeste 34 Noroeste 0 -- -- 56
2018-12-03 04:00:00 17.7 33 Oeste 45 Oeste 0 -- -- 47
2018-12-03 03:00:00 16.7 27 Oeste 36 Oeste 0 -- -- 51
2018-12-03 02:00:00 17.2 22 Oeste 35 Sudoeste 0 -- -- 51
2018-12-03 01:00:00 16.4 26 Oeste 44 Oeste 0 -- -- 54
2018-12-03 00:00:00 16.5 17 Noroeste 26 Oeste 0 -- -- 53
2018-12-02 23:00:00 16.1 18 Noroeste 40 Oeste 0 -- -- 53
2018-12-02 22:00:00 16.7 30 Oeste 40 Oeste 0 -- -- 52
2018-12-02 21:00:00 16.1 16 Oeste 24 Oeste 0 -- -- 56
2018-12-02 20:00:00 16.5 19 Noroeste 28 Oeste 0 -- -- 54
2018-12-02 19:00:00 16.7 16 Noroeste 22 Oeste 0 -- -- 54
2018-12-02 18:00:00 18.6 14 Oeste 30 Oeste 0 -- -- 49
2018-12-02 17:00:00 21 21 Oeste 35 Oeste 0 -- -- 44
2018-12-02 16:00:00 23.5 19 Oeste 33 Noroeste 0 -- -- 39
2018-12-02 15:00:00 24.5 23 Oeste 36 Oeste 0 -- -- 38
2018-12-02 14:00:00 24.4 15 Oeste 37 Oeste 0 -- -- 38
2018-12-02 13:00:00 23.5 19 Oeste 29 Oeste 0 -- -- 40
2018-12-02 12:00:00 21.2 8 Oeste 14 Sudoeste 0 -- -- 46
2018-12-02 11:00:00 17.5 4 Sudoeste 9 Sudoeste 0 -- -- 48
2018-12-02 10:00:00 13.8 6 Sur 14 Oeste 0 -- -- 52
2018-12-02 09:00:00 13 9 Noroeste 21 Noroeste 0 -- -- 49
2018-12-02 08:00:00 14 17 Oeste 28 Oeste 0 -- -- 42
2018-12-02 07:00:00 12.6 5 Sudoeste 27 Noroeste 0 -- -- 47
2018-12-02 06:00:00 11.9 10 Noroeste 25 Noroeste 0 -- -- 43
2018-12-02 05:00:00 10.4 7 Noroeste 20 Oeste 0 -- -- 44
2018-12-02 04:00:00 9.6 5 Nordeste 13 Nordeste 0 -- -- 47
2018-12-02 03:00:00 10.3 3 Norte 14 Oeste 0 -- -- 42
2018-12-02 02:00:00 10.6 12 Sudoeste 17 Oeste 0 -- -- 40
2018-12-02 01:00:00 10.3 9 Oeste 18 Oeste 0 -- -- 42
2018-12-02 00:00:00 11.2 10 Sudoeste 15 Oeste 0 -- -- 41
2018-12-01 23:00:00 12.8 23 Oeste 42 Oeste 0 -- -- 36
2018-12-01 22:00:00 10 4 Sur 12 Oeste 0 -- -- 46
2018-12-01 21:00:00 10.6 2 Oeste 10 Sudoeste 0 -- -- 53
2018-12-01 20:00:00 10.7 9 Sudoeste 23 Noroeste 0 -- -- 55
2018-12-01 19:00:00 11.4 7 Norte 13 Norte 0 -- -- 73
2018-12-01 18:00:00 13.5 4 Este 14 Este 0 -- -- 66
2018-12-01 17:00:00 15.8 12 Este 18 Este 0 -- -- 54
2018-12-01 16:00:00 18.1 10 Sudeste 15 Sudeste 0 -- -- 42
2018-12-01 15:00:00 18.4 3 Sur 8 Nordeste 0 -- -- 31
2018-12-01 14:00:00 17 7 Este 11 Este 0 -- -- 33
2018-12-01 13:00:00 16.4 3 Sudoeste 10 Sur 0 -- -- 35
2018-12-01 12:00:00 14.8 4 Sudoeste 10 Oeste 0 -- -- 42
2018-12-01 11:00:00 11.8 3 Sudoeste 6 Sudoeste 0 -- -- 51
2018-12-01 10:00:00 8.3 2 Nordeste 6 Nordeste 0 -- -- 61
2018-12-01 09:00:00 5.8 5 Noroeste 13 Norte 0 -- -- 63
2018-12-01 08:00:00 5 8 Noroeste 10 Noroeste 0 -- -- 67
2018-12-01 07:00:00 4.4 9 Noroeste 12 Noroeste 0 -- -- 74
2018-12-01 06:00:00 4.6 8 Noroeste 12 Noroeste 0 -- -- 75
2018-12-01 05:00:00 4.9 6 Norte 12 Noroeste 0 -- -- 75
2018-12-01 04:00:00 6 10 Noroeste 14 Noroeste 0 -- -- 71
2018-12-01 03:00:00 7.4 9 Noroeste 13 Noroeste 0 -- -- 64
2018-12-01 02:00:00 6.7 9 Noroeste 16 Noroeste 0 -- -- 70
2018-12-01 01:00:00 7.1 14 Noroeste 19 Oeste 0 -- -- 73
2018-12-01 00:00:00 7.9 12 Oeste 17 Oeste 0 -- -- 71
2018-11-30 23:00:00 9 10 Oeste 20 Oeste 0 -- -- 67
2018-11-30 22:00:00 9.8 12 Oeste 28 Oeste 0 -- -- 65
2018-11-30 21:00:00 10.8 11 Noroeste 30 Noroeste 0 -- -- 60
2018-11-30 20:00:00 11.7 16 Oeste 36 Noroeste 0 -- -- 58
2018-11-30 19:00:00 12 11 Oeste 29 Noroeste 0 -- -- 63
2018-11-30 18:00:00 14 18 Noroeste 34 Oeste 0 -- -- 52
2018-11-30 17:00:00 16.6 26 Oeste 44 Oeste 0 -- -- 40
2018-11-30 16:00:00 17.5 35 Oeste 46 Oeste 0 -- -- 37
2018-11-30 15:00:00 17.8 32 Oeste 55 Oeste 0 -- -- 41
2018-11-30 14:00:00 17.8 32 Oeste 59 Oeste 0 -- -- 48
2018-11-30 13:00:00 17.3 38 Oeste 55 Oeste 0 -- -- 52
2018-11-30 12:00:00 17.4 33 Oeste 55 Oeste 0 -- -- 55
2018-11-30 11:00:00 16.6 39 Oeste 57 Oeste 0 -- -- 60
2018-11-30 10:00:00 15.4 41 Oeste 58 Oeste 0 -- -- 67
2018-11-30 09:00:00 14.7 37 Noroeste 56 Oeste 0 -- -- 69
2018-11-30 08:00:00 14.3 39 Oeste 54 Noroeste 0 -- -- 70
2018-11-30 07:00:00 10.6 19 Sudoeste 40 Oeste 0 -- -- 74
2018-11-30 06:00:00 10.1 19 Oeste 30 Oeste 0 -- -- 71
2018-11-30 05:00:00 9.6 21 Sudoeste 27 Sudoeste 0 -- -- 70
2018-11-30 04:00:00 9.5 4 Nordeste 23 Oeste 0 -- -- 64
2018-11-30 03:00:00 10 15 Sudoeste 23 Sudoeste 0 -- -- 63
2018-11-30 02:00:00 11.1 15 Sudoeste 38 Oeste 0 -- -- 52
2018-11-30 01:00:00 12.3 15 Oeste 31 Oeste 0 -- -- 45
2018-11-30 00:00:00 11.2 11 Oeste 23 Oeste 0 -- -- 49
2018-11-29 23:00:00 10.5 6 Noroeste 12 Oeste 0 -- -- 61
2018-11-29 22:00:00 10.1 3 Oeste 6 Norte 0 -- -- 71
2018-11-29 21:00:00 10.9 3 Norte 6 Nordeste 0 -- -- 71
2018-11-29 20:00:00 11 4 Norte 6 Norte 0 -- -- 74
2018-11-29 19:00:00 12.8 0 Calma 3 Oeste 0 -- -- 65
2018-11-29 18:00:00 14 2 Noroeste 6 Sudeste 0 -- -- 60
2018-11-29 17:00:00 16.7 3 Sudeste 11 Sudeste 0 -- -- 50
2018-11-29 16:00:00 18.1 8 Sudeste 13 Sudeste 0 -- -- 47
2018-11-29 15:00:00 18.3 8 Este 17 Este 0 -- -- 38
2018-11-29 14:00:00 19.1 9 Este 15 Este 0 -- -- 35
2018-11-29 13:00:00 18.7 6 Sudeste 12 Sur 0 -- -- 33
2018-11-29 12:00:00 17.4 4 Sudeste 10 Sudeste 0 -- -- 38
2018-11-29 11:00:00 16 4 Sudeste 12 Nordeste 0 -- -- 40
2018-11-29 10:00:00 11.9 2 Oeste 9 Noroeste 0 -- -- 47
2018-11-29 09:00:00 8.3 8 Noroeste 16 Noroeste 0 -- -- 47
2018-11-29 08:00:00 8 14 Noroeste 18 Noroeste 0 -- -- 45
2018-11-29 07:00:00 8.1 10 Noroeste 16 Noroeste 0 -- -- 43
2018-11-29 06:00:00 8.3 8 Norte 12 Noroeste 0 -- -- 43
2018-11-29 05:00:00 7.4 6 Noroeste 11 Norte 0 -- -- 48
2018-11-29 04:00:00 7.5 8 Noroeste 17 Noroeste 0 -- -- 48
2018-11-29 03:00:00 9.5 13 Noroeste 18 Noroeste 0 -- -- 40
2018-11-29 02:00:00 8.7 12 Noroeste 18 Norte 0 -- -- 44
2018-11-29 01:00:00 8.4 10 Noroeste 17 Noroeste 0 -- -- 46
2018-11-29 00:00:00 9.5 9 Noroeste 15 Noroeste 0 -- -- 46
2018-11-28 23:00:00 8.6 9 Noroeste 15 Norte 0 -- -- 49
2018-11-28 22:00:00 9.6 8 Norte 13 Noroeste 0 -- -- 52
2018-11-28 21:00:00 9.8 7 Norte 10 Noroeste 0 -- -- 61
2018-11-28 14:00:00 -- -- -- -- -- -- -- -- --
2018-11-28 13:00:00 19.1 5 Este 10 Este 0 -- -- 35
2018-11-28 12:00:00 17.7 4 Este 7 Este 0 -- -- 36
2018-11-28 11:00:00 15.1 0 Calma 6 Sudoeste 0 -- -- 42
2018-11-28 10:00:00 10.4 4 Sudoeste 12 Noroeste 0 -- -- 52
2018-11-28 09:00:00 7.7 7 Noroeste 15 Noroeste 0 -- -- 57
2018-11-28 08:00:00 6.5 9 Noroeste 15 Noroeste 0 -- -- 58
2018-11-28 07:00:00 6.6 10 Noroeste 12 Noroeste 0 -- -- 58
2018-11-28 06:00:00 8.2 12 Noroeste 18 Norte 0 -- -- 54
2018-11-28 05:00:00 8.1 13 Noroeste 17 Noroeste 0 -- -- 54
2018-11-28 04:00:00 7.4 7 Noroeste 13 Noroeste 0 -- -- 58
2018-11-28 03:00:00 7.4 5 Noroeste 12 Noroeste 0 -- -- 55
2018-11-28 02:00:00 8.4 10 Noroeste 13 Noroeste 0 -- -- 51
2018-11-28 01:00:00 8.1 10 Noroeste 13 Oeste 0 -- -- 55
2018-11-28 00:00:00 7.6 4 Noroeste 15 Norte 0 -- -- 65
2018-11-27 23:00:00 7.7 6 Noroeste 15 Noroeste 0 -- -- 72
2018-11-27 22:00:00 7.8 8 Noroeste 12 Noroeste 0 -- -- 74
2018-11-27 21:00:00 9.4 2 Noroeste 10 Noroeste 0 -- -- 69
2018-11-27 20:00:00 10.1 6 Nordeste 10 Nordeste 0 -- -- 70
2018-11-27 19:00:00 11.9 8 Noroeste 11 Noroeste 0 -- -- 69
2018-11-27 18:00:00 14.1 4 Este 9 Sudeste 0 -- -- 60
2018-11-27 17:00:00 17.3 6 Sudeste 13 Sudeste 0 -- -- 48
2018-11-27 16:00:00 19 5 Sudeste 12 Sudeste 0 -- -- 39
2018-11-27 15:00:00 18.9 5 Sudeste 10 Este 0 -- -- 37
2018-11-27 14:00:00 18.5 5 Sudoeste 12 Sudeste 0 -- -- 37
2018-11-27 13:00:00 17.4 3 Sudeste 8 Sur 0 -- -- 45
2018-11-27 12:00:00 15.4 5 Oeste 19 Sudoeste 0 -- -- 52
2018-11-27 11:00:00 13.3 12 Sudoeste 17 Sudoeste 0 -- -- 61
2018-11-27 10:00:00 10.7 12 Sudoeste 32 Oeste 0 -- -- 67
2018-11-27 09:00:00 9 22 Oeste 39 Oeste 0 -- -- 72
2018-11-27 08:00:00 7.4 7 Oeste 26 Oeste 0 -- -- 75
2018-11-27 07:00:00 8.7 4 Sudoeste 25 Oeste 0 -- -- 67
2018-11-27 06:00:00 8.7 17 Oeste 31 Oeste 0 -- -- 70
2018-11-27 05:00:00 9.1 12 Oeste 40 Oeste 0 -- -- 70
2018-11-27 04:00:00 8.5 6 Sur 28 Oeste 0 -- -- 71
2018-11-27 03:00:00 9 18 Sudoeste 24 Sudoeste 0 -- -- 69
2018-11-27 02:00:00 9.4 8 Oeste 41 Oeste 0 -- -- 69
2018-11-27 01:00:00 10.3 36 Noroeste 55 Noroeste 0 -- -- 66
2018-11-27 00:00:00 10.1 42 Oeste 51 Oeste 0 -- -- 67
2018-11-26 23:00:00 9.2 27 Oeste 34 Oeste 0 -- -- 70
2018-11-26 22:00:00 9.9 17 Oeste 41 Oeste 0 -- -- 68
2018-11-26 21:00:00 10.4 22 Oeste 40 Oeste 0 -- -- 66
2018-11-26 20:00:00 10.8 29 Oeste 48 Oeste 0 -- -- 65
2018-11-26 19:00:00 10.7 24 Oeste 53 Oeste 0 -- -- 63
2018-11-26 18:00:00 11.2 42 Oeste 61 Oeste 0 -- -- 60
2018-11-26 17:00:00 11.5 37 Oeste 55 Oeste 0 -- -- 60
2018-11-26 16:00:00 11.8 26 Oeste 55 Oeste 0 -- -- 57
2018-11-26 15:00:00 12.5 28 Oeste 66 Oeste 0 -- -- 54
2018-11-26 14:00:00 13.5 44 Oeste 67 Oeste 0 -- -- 48
2018-11-26 13:00:00 11.9 33 Oeste 64 Oeste 0 -- -- 54
2018-11-26 12:00:00 11.1 49 Oeste 69 Oeste 0 -- -- 56
2018-11-26 11:00:00 11 28 Oeste 63 Oeste 0 -- -- 56
2018-11-26 10:00:00 10.7 40 Oeste 68 Oeste 0 -- -- 53
2018-11-26 09:00:00 9.7 28 Oeste 48 Oeste 0 -- -- 57
2018-11-26 08:00:00 9.8 28 Oeste 64 Oeste 0 -- -- 57
2018-11-26 07:00:00 10.8 25 Oeste 51 Oeste 0 -- -- 56
2018-11-26 06:00:00 12.2 28 Oeste 77 Sudoeste 0 -- -- 65
2018-11-26 05:00:00 15.2 44 Oeste 87 Oeste 0 -- -- 55
2018-11-26 04:00:00 16.4 48 Oeste 71 Oeste 0 -- -- 63
2018-11-26 03:00:00 16.7 39 Oeste 62 Sudoeste 0 -- -- 65
2018-11-26 02:00:00 13.3 5 Sudeste 26 Sudeste 0 -- -- 74
2018-11-26 01:00:00 14.2 3 Este 13 Noroeste 0 -- -- 69
2018-11-26 00:00:00 14.8 8 Noroeste 38 Noroeste 0 -- -- 64
2018-11-25 23:00:00 15.1 18 Noroeste 45 Oeste 0 -- -- 62
2018-11-25 22:00:00 15.4 26 Oeste 50 Oeste 0 -- -- 62
2018-11-25 21:00:00 15.9 39 Oeste 57 Oeste 0 -- -- 56
2018-11-25 20:00:00 16.1 40 Oeste 60 Oeste 0 -- -- 55
2018-11-25 19:00:00 15.9 20 Oeste 41 Oeste 0 -- -- 59
2018-11-25 18:00:00 16.4 27 Oeste 54 Oeste 0 -- -- 56
2018-11-25 17:00:00 16.6 30 Oeste 53 Oeste 0 -- -- 56
2018-11-25 16:00:00 16.7 29 Oeste 67 Sudoeste 0 -- -- 51
2018-11-25 15:00:00 18.4 40 Sudoeste 61 Sudoeste 0 -- -- 49
2018-11-25 14:00:00 18.5 20 Noroeste 57 Oeste 0 -- -- 53
2018-11-25 13:00:00 18.2 36 Oeste 59 Oeste 0 -- -- 55
2018-11-25 12:00:00 17.9 37 Oeste 57 Oeste 0 -- -- 53
2018-11-25 11:00:00 15.9 13 Oeste 27 Sudoeste 0 -- -- 62
2018-11-25 10:00:00 12.2 5 Sur 15 Sudeste 0 -- -- 71
2018-11-25 09:00:00 9 7 Sudeste 12 Este 0 -- -- 80
2018-11-25 08:00:00 7.6 5 Noroeste 11 Nordeste 0 -- -- 82
2018-11-25 07:00:00 7.5 2 Este 18 Oeste 0 -- -- 79
2018-11-25 06:00:00 8 11 Oeste 17 Oeste 0 -- -- 79
2018-11-25 05:00:00 7.9 13 Oeste 17 Oeste 0 -- -- 78
2018-11-25 04:00:00 8.1 7 Oeste 18 Sudoeste 0 -- -- 76
2018-11-25 03:00:00 9.5 15 Oeste 42 Oeste 0 -- -- 71
2018-11-25 02:00:00 7.4 8 Oeste 13 Sudoeste 0 -- -- 78
2018-11-25 01:00:00 8.1 6 Sur 18 Noroeste 0 -- -- 72
2018-11-25 00:00:00 9.2 14 Oeste 28 Oeste 0 -- -- 69
2018-11-24 23:00:00 8.8 7 Oeste 29 Oeste 0 -- -- 69
2018-11-24 22:00:00 8.8 16 Oeste 29 Noroeste 0 -- -- 69
2018-11-24 21:00:00 9.1 12 Oeste 26 Oeste 0 -- -- 70
2018-11-24 20:00:00 10.1 15 Oeste 26 Oeste 0 -- -- 66
2018-11-24 19:00:00 10.7 13 Oeste 25 Oeste 0 -- -- 65
2018-11-24 18:00:00 12.1 20 Oeste 30 Oeste 0 -- -- 58
2018-11-24 17:00:00 13.4 18 Oeste 26 Oeste 0 -- -- 56
2018-11-24 16:00:00 14.7 14 Oeste 30 Sudoeste 0 -- -- 51
2018-11-24 15:00:00 14.9 24 Sudoeste 33 Sudoeste 0 -- -- 55
2018-11-24 14:00:00 15.3 22 Sudoeste 35 Sudoeste 0 -- -- 56
2018-11-24 13:00:00 14.4 26 Sudoeste 32 Sudoeste 0 -- -- 61
2018-11-24 12:00:00 12.9 13 Sudoeste 19 Sudoeste 0 -- -- 63
2018-11-24 11:00:00 11.8 13 Sudoeste 19 Sudoeste 0 -- -- 70
2018-11-24 10:00:00 9.7 5 Oeste 17 Oeste 0 -- -- 76
2018-11-24 09:00:00 7.3 8 Sudoeste 12 Noroeste 0 -- -- 85
2018-11-24 08:00:00 7.3 8 Noroeste 12 Oeste 0 -- -- 84
2018-11-24 07:00:00 7.6 6 Oeste 9 Oeste 0 -- -- 83
2018-11-24 06:00:00 7.7 5 Oeste 8 Oeste 0 -- -- 85
2018-11-24 05:00:00 8.1 5 Noroeste 14 Oeste 0 -- -- 83
2018-11-24 04:00:00 8.5 6 Noroeste 12 Noroeste 0 -- -- 79
2018-11-24 03:00:00 9.1 5 Noroeste 9 Noroeste 0 -- -- 76
2018-11-24 02:00:00 9.7 3 Oeste 14 Oeste 0 -- -- 74
2018-11-24 01:00:00 10.3 9 Oeste 22 Oeste 0 -- -- 73
2018-11-24 00:00:00 10.7 14 Oeste 23 Oeste 0 -- -- 72
2018-11-23 23:00:00 10.4 6 Noroeste 15 Oeste 0 -- -- 74
2018-11-23 22:00:00 10.7 10 Oeste 20 Oeste 0 -- -- 77
2018-11-23 21:00:00 10.3 14 Oeste 20 Oeste 0 -- -- 77
2018-11-23 20:00:00 10.5 8 Noroeste 15 Noroeste 0 -- -- 78
2018-11-23 19:00:00 11.5 6 Oeste 18 Oeste 0 -- -- 74
2018-11-23 18:00:00 12.5 16 Oeste 29 Oeste 0 -- -- 70
2018-11-23 17:00:00 14 24 Oeste 31 Oeste 0 -- -- 63
2018-11-23 16:00:00 14.8 21 Oeste 30 Oeste 0 -- -- 64
2018-11-23 15:00:00 15.4 15 Oeste 26 Oeste 0 -- -- 67
2018-11-23 14:00:00 13.7 12 Sudoeste 22 Sudoeste 0 -- -- 74
2018-11-23 13:00:00 13.1 17 Sudoeste 32 Sudoeste 0 -- -- 77
2018-11-23 12:00:00 12.1 19 Sudoeste 32 Sudoeste 0 -- -- 86
2018-11-23 11:00:00 12.4 4 Noroeste 7 Oeste 0 -- -- 95
2018-11-23 10:00:00 11.2 5 Este 12 Sudoeste 0 -- -- 95
2018-11-23 09:00:00 10.5 5 Sudoeste 9 Oeste 0.4 -- -- 95
2018-11-23 08:00:00 10.3 4 Nordeste 7 Noroeste 0.6 -- -- 92
2018-11-23 07:00:00 10.6 7 Noroeste 15 Oeste 0 -- -- 87
2018-11-23 06:00:00 10.3 10 Sudoeste 20 Sudoeste 0 -- -- 88
2018-11-23 05:00:00 10.6 5 Noroeste 10 Norte 0 -- -- 88
2018-11-23 04:00:00 10.4 4 Norte 10 Norte 0 -- -- 88
2018-11-23 03:00:00 10.1 0 Calma 9 Nordeste 0 -- -- 88
2018-11-23 02:00:00 9.8 5 Norte 10 Norte 0 -- -- 89
2018-11-23 01:00:00 9.9 7 Norte 9 Noroeste 0 -- -- 87
2018-11-23 00:00:00 10.2 4 Norte 8 Norte 0 -- -- 88
2018-11-22 23:00:00 10.5 5 Norte 9 Noroeste 0 -- -- 87
2018-11-22 22:00:00 10.8 0 Calma 10 Norte 0 -- -- 85
2018-11-22 21:00:00 11 7 Noroeste 9 Noroeste 0 -- -- 84
2018-11-22 20:00:00 11 6 Norte 10 Nordeste 0 -- -- 83
2018-11-22 19:00:00 11.2 4 Norte 9 Nordeste 0 -- -- 82
2018-11-22 18:00:00 12.2 5 Este 9 Nordeste 0 -- -- 76
2018-11-22 17:00:00 13 5 Este 9 Este 0 -- -- 75
2018-11-22 16:00:00 13.9 4 Sudeste 7 Sudeste 0 -- -- 76
2018-11-22 15:00:00 14.4 3 Sudeste 9 Este 0 -- -- 75
2018-11-22 14:00:00 12.4 3 Sudoeste 8 Sudoeste 0 -- -- 83
2018-11-22 13:00:00 11.9 8 Sudoeste 15 Noroeste 0 -- -- 85
2018-11-22 12:00:00 11.4 11 Noroeste 17 Noroeste 0.2 -- -- 85
2018-11-22 11:00:00 11.1 7 Oeste 12 Oeste 0 -- -- 88
2018-11-22 10:00:00 10.8 5 Oeste 9 Sudoeste 0.2 -- -- 86
2018-11-22 09:00:00 10.5 4 Noroeste 12 Noroeste 0 -- -- 87
2018-11-22 08:00:00 10.3 8 Noroeste 10 Noroeste 0 -- -- 85
2018-11-22 07:00:00 10.3 2 Norte 6 Nordeste 0 -- -- 86
2018-11-22 06:00:00 10.5 3 Noroeste 8 Noroeste 0 -- -- 84
2018-11-22 05:00:00 10.6 8 Noroeste 10 Norte 0 -- -- 84
2018-11-22 04:00:00 10.6 4 Nordeste 10 Oeste 0 -- -- 82
2018-11-22 03:00:00 11 7 Noroeste 11 Noroeste 0 -- -- 80
2018-11-22 02:00:00 10.3 5 Norte 11 Noroeste 0 -- -- 85
2018-11-22 01:00:00 10.5 5 Noroeste 11 Norte 0 -- -- 84
2018-11-22 00:00:00 11.1 6 Oeste 11 Oeste 0 -- -- 84
2018-11-21 23:00:00 10.8 10 Noroeste 14 Oeste 0 -- -- 85
2018-11-21 22:00:00 10.9 10 Oeste 18 Oeste 0 -- -- 87
2018-11-21 21:00:00 10.9 8 Noroeste 12 Noroeste 0 -- -- 87
2018-11-21 20:00:00 11.1 8 Noroeste 10 Noroeste 0 -- -- 86
2018-11-21 19:00:00 12 4 Norte 7 Norte 0 -- -- 82
2018-11-21 18:00:00 13.7 5 Nordeste 12 Este 0 -- -- 74
2018-11-21 17:00:00 15.8 6 Este 13 Sur 0 -- -- 65
2018-11-21 16:00:00 17.2 8 Sudeste 13 Sudeste 0 -- -- 63
2018-11-21 15:00:00 16.5 5 Sudeste 10 Sudeste 0 -- -- 65
2018-11-21 14:00:00 15 8 Sudeste 12 Sudeste 0 -- -- 72
2018-11-21 13:00:00 14.2 3 Este 8 Nordeste 0 -- -- 66
2018-11-21 12:00:00 12.5 0 Calma 5 Oeste 0 -- -- 79
2018-11-21 11:00:00 10.9 2 Oeste 8 Noroeste 0 -- -- 82
2018-11-21 10:00:00 10.6 5 Noroeste 15 Norte 0 -- -- 81
2018-11-21 09:00:00 9.3 9 Norte 13 Norte 0 -- -- 82
2018-11-21 08:00:00 8.8 5 Noroeste 10 Noroeste 0 -- -- 80
2018-11-21 07:00:00 8.9 4 Noroeste 8 Noroeste 0 -- -- 79
2018-11-21 06:00:00 9.2 4 Nordeste 10 Noroeste 0 -- -- 76
2018-11-21 05:00:00 10.2 5 Oeste 13 Sudoeste 0 -- -- 71
2018-11-21 04:00:00 11 8 Oeste 32 Sudoeste 0 -- -- 67
2018-11-21 03:00:00 11.1 7 Sudoeste 32 Oeste 0 -- -- 70
2018-11-21 02:00:00 11.3 5 Sudeste 33 Oeste 0 -- -- 68
2018-11-21 01:00:00 11.1 10 Sudoeste 25 Oeste 0 -- -- 69
2018-11-21 00:00:00 10.7 5 Este 13 Norte 0 -- -- 73
2018-11-20 23:00:00 11.5 5 Sudoeste 14 Sudoeste 0 -- -- 70
2018-11-20 22:00:00 10.7 5 Sudeste 13 Sudoeste 0 -- -- 70
2018-11-20 21:00:00 11.2 11 Oeste 30 Oeste 0 -- -- 67
2018-11-20 20:00:00 11.5 15 Oeste 40 Oeste 0 -- -- 62
2018-11-20 19:00:00 12.2 20 Oeste 44 Sudoeste 0 -- -- 59
2018-11-20 18:00:00 13.3 33 Oeste 69 Oeste 0 -- -- 58
2018-11-20 17:00:00 14.6 41 Oeste 67 Noroeste 0 -- -- 63
2018-11-20 16:00:00 16.1 9 Oeste 18 Sudoeste 0.2 -- -- 68
2018-11-20 15:00:00 18.1 3 Sudoeste 17 Sudeste 0 -- -- 59
2018-11-20 14:00:00 17.4 12 Sudeste 21 Sudeste 0 -- -- 64
2018-11-20 13:00:00 16 8 Este 15 Este 0 -- -- 64
2018-11-20 12:00:00 12.6 5 Nordeste 7 Nordeste 0 -- -- 73
2018-11-20 11:00:00 12.3 4 Sur 10 Norte 0 -- -- 74
2018-11-20 10:00:00 11.2 5 Sudoeste 10 Oeste 0 -- -- 77
2018-11-20 09:00:00 10.5 10 Noroeste 15 Noroeste 0 -- -- 74
2018-11-20 08:00:00 9.2 5 Sudoeste 12 Oeste 0 -- -- 75
2018-11-20 07:00:00 10 11 Oeste 26 Oeste 0 -- -- 74
2018-11-20 06:00:00 10.5 15 Oeste 32 Oeste 0 -- -- 79
2018-11-20 05:00:00 10.9 19 Oeste 36 Oeste 0 -- -- 78
2018-11-20 04:00:00 10.7 18 Oeste 28 Oeste 0 -- -- 80
2018-11-20 03:00:00 10.5 10 Sudoeste 28 Oeste 0 -- -- 81
2018-11-20 02:00:00 11.3 17 Oeste 34 Oeste 0 -- -- 79
2018-11-20 01:00:00 11.5 22 Oeste 37 Oeste 0 -- -- 79
2018-11-20 00:00:00 10.8 10 Oeste 19 Oeste 0 -- -- 88
2018-11-19 23:00:00 11.2 8 Oeste 28 Oeste 0 -- -- 85
2018-11-19 22:00:00 11.5 23 Oeste 34 Sudoeste 0 -- -- 80
2018-11-19 21:00:00 10.8 14 Sudoeste 30 Oeste 0.2 -- -- 89
2018-11-19 20:00:00 11.5 13 Oeste 30 Oeste 0 -- -- 86
2018-11-19 19:00:00 12.2 18 Oeste 27 Oeste 0 -- -- 79
2018-11-19 18:00:00 12.9 18 Sudoeste 29 Sudoeste 0 -- -- 76
2018-11-19 17:00:00 13.5 17 Sudoeste 28 Oeste 0 -- -- 76
2018-11-19 16:00:00 14.1 17 Sudoeste 26 Oeste 0 -- -- 72
2018-11-19 15:00:00 13.7 23 Oeste 36 Oeste 0 -- -- 73
2018-11-19 14:00:00 13.5 21 Noroeste 30 Noroeste 0 -- -- 74
2018-11-19 13:00:00 13.7 14 Oeste 28 Oeste 0 -- -- 72
2018-11-19 12:00:00 14.2 17 Oeste 36 Oeste 0 -- -- 71
2018-11-19 11:00:00 13.3 22 Oeste 35 Oeste 0 -- -- 78
2018-11-19 10:00:00 12 19 Oeste 28 Oeste 0 -- -- 83
2018-11-19 09:00:00 10.7 13 Oeste 19 Oeste 0 -- -- 94
2018-11-19 08:00:00 9.7 4 Oeste 18 Oeste 0 -- -- 96
2018-11-19 07:00:00 10.1 4 Oeste 7 Oeste 0.2 -- -- 97
2018-11-19 06:00:00 10.2 3 Sudoeste 7 Oeste 0.2 -- -- 98
2018-11-19 05:00:00 10.3 3 Oeste 9 Sudoeste 0 -- -- 98
2018-11-19 04:00:00 10.4 3 Nordeste 10 Oeste 0.2 -- -- 98
2018-11-19 03:00:00 10.3 9 Oeste 14 Oeste 0.8 -- -- 98
2018-11-19 02:00:00 10.3 3 Oeste 20 Sudoeste 1.8 -- -- 97
2018-11-19 01:00:00 11.2 10 Sudoeste 17 Sudoeste 0.2 -- -- 97
2018-11-19 00:00:00 11.5 6 Sur 15 Sudeste 0.2 -- -- 97
2018-11-18 23:00:00 11.7 4 Sur 15 Sur 0 -- -- 96
2018-11-18 22:00:00 11.8 3 Sudeste 32 Nordeste 0.6 -- -- 94
2018-11-18 21:00:00 12 8 Este 19 Nordeste 0.2 -- -- 94
2018-11-18 20:00:00 11.7 5 Este 17 Nordeste 0.4 -- -- 93
2018-11-18 19:00:00 11.9 7 Nordeste 13 Nordeste 0 -- -- 93
2018-11-18 18:00:00 11.9 8 Este 27 Este 2.4 -- -- 93
2018-11-18 17:00:00 13 13 Este 27 Este 0 -- -- 87
2018-11-18 16:00:00 13.3 13 Este 27 Este 0 -- -- 81
2018-11-18 15:00:00 13.7 14 Nordeste 27 Nordeste 0 -- -- 77
2018-11-18 14:00:00 13.6 9 Este 25 Nordeste 0 -- -- 80
2018-11-18 13:00:00 13.8 9 Este 28 Nordeste 0 -- -- 82
2018-11-18 12:00:00 14.1 11 Este 25 Este 0 -- -- 81
2018-11-18 11:00:00 13.1 4 Sur 8 Sur 0 -- -- 88
2018-11-18 10:00:00 11.9 0 Calma 6 Norte 0 -- -- 94
2018-11-18 09:00:00 10.9 5 Norte 9 Nordeste 0 -- -- 94
2018-11-18 08:00:00 10.6 4 Nordeste 6 Nordeste 0 -- -- 95
2018-11-18 07:00:00 10.3 6 Nordeste 7 Nordeste 0 -- -- 95
2018-11-18 06:00:00 11 3 Nordeste 9 Nordeste 0 -- -- 93
2018-11-18 05:00:00 10.9 8 Nordeste 12 Nordeste 0 -- -- 92
2018-11-18 04:00:00 11.2 0 Calma 12 Nordeste 0 -- -- 91
2018-11-18 03:00:00 11.3 5 Este 20 Este 0 -- -- 90
2018-11-18 02:00:00 12 2 Este 8 Este 0 -- -- 97
2018-11-18 01:00:00 12.1 4 Sudeste 12 Sur 0 -- -- 97
2018-11-18 00:00:00 11.9 3 Este 8 Este 0 -- -- 96
2018-11-17 23:00:00 12.1 5 Nordeste 14 Nordeste 1 -- -- 97
2018-11-17 22:00:00 12.8 6 Este 11 Este 0.6 -- -- 97
2018-11-17 21:00:00 12.9 5 Sudeste 14 Este 0.6 -- -- 97
2018-11-17 20:00:00 13 4 Nordeste 12 Este 0.2 -- -- 97
2018-11-17 19:00:00 12.9 6 Este 14 Este 2 -- -- 95
2018-11-17 18:00:00 13.7 2 Norte 5 Sudeste 0 -- -- 93
2018-11-17 17:00:00 14.1 3 Sudeste 15 Este 0 -- -- 91
2018-11-17 16:00:00 15.1 6 Sudeste 15 Este 0 -- -- 89
2018-11-17 15:00:00 15.4 6 Este 14 Este 0 -- -- 84
2018-11-17 14:00:00 14.9 3 Sudoeste 10 Este 0 -- -- 89
2018-11-17 13:00:00 14.7 6 Este 16 Este 0.2 -- -- 90
2018-11-17 12:00:00 14.2 8 Sudeste 18 Este 0 -- -- 92
2018-11-17 11:00:00 14.2 3 Sur 6 Sudoeste 0 -- -- 94
2018-11-17 10:00:00 13.4 3 Sudoeste 5 Sur 0 -- -- 97
2018-11-17 09:00:00 12.4 3 Oeste 5 Oeste 0 -- -- 97
2018-11-17 08:00:00 11.9 2 Noroeste 10 Nordeste 0 -- -- 97
2018-11-17 07:00:00 11.9 2 Oeste 10 Oeste 0 -- -- 96
2018-11-17 06:00:00 12 4 Oeste 9 Sudoeste 0 -- -- 95
2018-11-17 05:00:00 12.6 3 Sudoeste 7 Oeste 0 -- -- 95
2018-11-17 04:00:00 13 3 Sudoeste 13 Este 0 -- -- 95
2018-11-17 03:00:00 13 3 Este 10 Norte 0 -- -- 95
2018-11-17 02:00:00 13.2 3 Sudeste 6 Este 0 -- -- 97
2018-11-17 01:00:00 13 2 Oeste 5 Sudoeste 0 -- -- 97
2018-11-17 00:00:00 13 3 Sudoeste 7 Nordeste 2 -- -- 96
2018-11-16 23:00:00 13.1 5 Nordeste 17 Este 0 -- -- 96
2018-11-16 22:00:00 12.9 3 Este 8 Este 0 -- -- 97
2018-11-16 21:00:00 12.8 4 Oeste 6 Nordeste 0 -- -- 96
2018-11-16 20:00:00 12.8 6 Nordeste 10 Nordeste 0 -- -- 97
2018-11-16 19:00:00 13.2 3 Noroeste 4 Noroeste 0 -- -- 96
2018-11-16 18:00:00 13.6 2 Sudoeste 4 Sudoeste 0 -- -- 94
2018-11-16 17:00:00 13.7 0 Calma 10 Noroeste 0 -- -- 94
2018-11-16 16:00:00 12.9 7 Norte 13 Norte 0 -- -- 94
2018-11-16 15:00:00 12.3 5 Noroeste 21 Norte 4.6 -- -- 96
2018-11-16 14:00:00 12 5 Sudoeste 22 Nordeste 7.4 -- -- 96
2018-11-16 13:00:00 13 5 Norte 12 Noroeste 7.6 -- -- 96
2018-11-16 12:00:00 13.4 0 Calma 13 Nordeste 3.4 -- -- 97
2018-11-16 11:00:00 13.3 2 Oeste 6 Sur 0.8 -- -- 97
2018-11-16 10:00:00 13 3 Noroeste 8 Sudeste 0.2 -- -- 96
2018-11-16 09:00:00 12.7 5 Sudoeste 11 Oeste 0.8 -- -- 95
2018-11-16 08:00:00 12.5 7 Norte 8 Norte 0 -- -- 94
2018-11-16 07:00:00 12.6 3 Sudeste 5 Noroeste 0 -- -- 91
2018-11-16 06:00:00 12.7 4 Noroeste 7 Oeste 0 -- -- 89
2018-11-16 05:00:00 12 2 Oeste 10 Norte 0 -- -- 91
2018-11-16 04:00:00 11.7 4 Noroeste 8 Norte 0 -- -- 91
2018-11-16 03:00:00 12.4 5 Noroeste 8 Noroeste 0 -- -- 90
2018-11-16 02:00:00 12.9 5 Nordeste 8 Nordeste 0 -- -- 91
2018-11-16 01:00:00 13.3 3 Noroeste 4 Norte 0 -- -- 94
2018-11-16 00:00:00 13.5 2 Norte 6 Norte 0 -- -- 95
2018-11-15 23:00:00 13.6 4 Noroeste 5 Norte 0 -- -- 96
2018-11-15 22:00:00 13.5 4 Norte 6 Norte 0 -- -- 96
2018-11-15 21:00:00 13.7 0 Calma 4 Noroeste 0 -- -- 95
2018-11-15 20:00:00 13.8 0 Calma 3 Nordeste 0 -- -- 95
2018-11-15 19:00:00 14 2 Oeste 4 Nordeste 0 -- -- 93
2018-11-15 18:00:00 14.5 0 Calma 10 Sudeste 0 -- -- 91
2018-11-15 17:00:00 15.2 6 Sudeste 16 Sudeste 0 -- -- 88
2018-11-15 16:00:00 16.5 12 Este 21 Este 0 -- -- 81
2018-11-15 15:00:00 17 8 Este 21 Este 0 -- -- 79
2018-11-15 14:00:00 16.2 7 Este 20 Este 0.2 -- -- 81
2018-11-15 13:00:00 15.6 4 Sudeste 9 Sudeste 0 -- -- 86
2018-11-15 12:00:00 15.3 4 Sur 13 Sudoeste 0 -- -- 87
2018-11-15 11:00:00 14.3 4 Sudoeste 8 Sudoeste 0 -- -- 93
2018-11-15 10:00:00 12.7 4 Noroeste 8 Sudoeste 0 -- -- 96
2018-11-15 09:00:00 12 0 Calma 6 Noroeste 0 -- -- 96
2018-11-15 08:00:00 11.7 4 Oeste 9 Este 0 -- -- 96
2018-11-15 07:00:00 11.7 3 Sudoeste 10 Oeste 0 -- -- 94
2018-11-15 06:00:00 11.7 4 Oeste 12 Oeste 0 -- -- 95
2018-11-15 05:00:00 11.7 9 Sudoeste 18 Norte 0.6 -- -- 94
2018-11-15 04:00:00 11.7 9 Noroeste 23 Norte 7.4 -- -- 97
2018-11-15 03:00:00 12.2 3 Noroeste 13 Noroeste 9.6 -- -- 97
2018-11-15 02:00:00 12.4 9 Noroeste 15 Oeste 3.8 -- -- 96
2018-11-15 01:00:00 12.1 8 Oeste 14 Oeste 1 -- -- 95
2018-11-15 00:00:00 12.6 3 Este 36 Nordeste 5.2 -- -- 93
2018-11-14 23:00:00 13.4 4 Sudeste 13 Norte 7 -- -- 94
2018-11-14 22:00:00 13.8 3 Norte 8 Oeste 1.8 -- -- 94
2018-11-14 21:00:00 14.1 4 Oeste 9 Sudeste 1.2 -- -- 93
2018-11-14 20:00:00 14.6 2 Sudeste 8 Sudeste 0 -- -- 87
2018-11-14 19:00:00 14.9 4 Sur 19 Este 0 -- -- 85
2018-11-14 18:00:00 15.6 10 Nordeste 26 Nordeste 0 -- -- 80
2018-11-14 17:00:00 15.8 15 Nordeste 24 Nordeste 0 -- -- 81
2018-11-14 16:00:00 16 6 Norte 17 Nordeste 0 -- -- 83
2018-11-14 15:00:00 15.2 6 Sudoeste 11 Sudoeste 0 -- -- 90
2018-11-14 14:00:00 15.3 7 Oeste 10 Oeste 0 -- -- 90
2018-11-14 13:00:00 14.2 5 Sudoeste 10 Sur 0 -- -- 95
2018-11-14 12:00:00 13.9 5 Oeste 12 Sudoeste 0 -- -- 96
2018-11-14 11:00:00 13.3 5 Sudoeste 10 Sudoeste 0 -- -- 96
2018-11-14 10:00:00 12.9 5 Sudeste 9 Norte 1.2 -- -- 96
2018-11-14 09:00:00 12.7 5 Sur 7 Sudoeste 0.4 -- -- 97
2018-11-14 08:00:00 12.5 5 Oeste 10 Sudoeste 2.6 -- -- 96
2018-11-14 07:00:00 12.6 4 Sudoeste 14 Sur 4.6 -- -- 95
2018-11-14 06:00:00 12.8 4 Oeste 9 Sudeste 1.8 -- -- 93
2018-11-14 05:00:00 13.1 4 Sur 9 Este 1.4 -- -- 90
2018-11-14 04:00:00 13.3 3 Noroeste 7 Norte 0.2 -- -- 91
2018-11-14 03:00:00 13.5 0 Calma 6 Sudoeste 0.4 -- -- 89
2018-11-14 02:00:00 13.9 3 Oeste 10 Oeste 0 -- -- 86
2018-11-14 01:00:00 13.7 4 Oeste 7 Noroeste 0 -- -- 90
2018-11-14 00:00:00 13.8 2 Sudoeste 6 Oeste 0 -- -- 90
2018-11-13 23:00:00 13.7 4 Noroeste 6 Oeste 0 -- -- 90
2018-11-13 22:00:00 14.1 2 Sudoeste 5 Oeste 0 -- -- 89
2018-11-13 21:00:00 14.4 2 Sudoeste 7 Oeste 0 -- -- 88
2018-11-13 20:00:00 15.1 3 Oeste 7 Sudeste 0 -- -- 85
2018-11-13 19:00:00 15.5 3 Sudeste 8 Sudeste 0 -- -- 84
2018-11-13 18:00:00 15.7 4 Sudeste 15 Sudeste 0 -- -- 82
2018-11-13 17:00:00 16.7 11 Sudeste 22 Sudeste 0 -- -- 78
2018-11-13 16:00:00 17.6 13 Sudeste 22 Sudeste 0 -- -- 72
2018-11-13 15:00:00 18.1 7 Sudeste 21 Este 0 -- -- 68
2018-11-13 14:00:00 19.2 13 Este 30 Este 0 -- -- 60
2018-11-13 13:00:00 20.7 14 Este 28 Este 0 -- -- 57
2018-11-13 12:00:00 20.3 12 Este 22 Este 0 -- -- 58
2018-11-13 11:00:00 17.4 6 Sur 10 Sur 0 -- -- 60
2018-11-13 10:00:00 14 4 Oeste 7 Noroeste 0 -- -- 75
2018-11-13 09:00:00 10.8 6 Noroeste 10 Noroeste 0 -- -- 82
2018-11-13 08:00:00 11.2 5 Norte 15 Noroeste 0 -- -- 78
2018-11-13 07:00:00 11.4 11 Noroeste 13 Noroeste 0 -- -- 80
2018-11-13 06:00:00 11.4 5 Oeste 10 Norte 0 -- -- 80
2018-11-13 05:00:00 11.6 6 Norte 9 Noroeste 0 -- -- 79
2018-11-13 04:00:00 11.8 8 Noroeste 10 Noroeste 0 -- -- 78
2018-11-13 03:00:00 11.4 6 Noroeste 8 Noroeste 0 -- -- 81
2018-11-13 02:00:00 12.1 7 Noroeste 13 Noroeste 0 -- -- 79
2018-11-13 01:00:00 11.8 8 Noroeste 10 Noroeste 0 -- -- 83
2018-11-13 00:00:00 12 5 Norte 12 Norte 0 -- -- 84
2018-11-12 23:00:00 12 6 Noroeste 9 Noroeste 0 -- -- 88
2018-11-12 22:00:00 12.2 7 Noroeste 12 Noroeste 0 -- -- 89
2018-11-12 21:00:00 12.4 4 Norte 6 Norte 0 -- -- 89
2018-11-12 20:00:00 13.6 3 Oeste 6 Oeste 0 -- -- 85
2018-11-12 19:00:00 14 3 Norte 8 Nordeste 0 -- -- 84
2018-11-12 18:00:00 15.3 3 Este 12 Este 0 -- -- 78
2018-11-12 17:00:00 17.4 9 Sudeste 16 Este 0 -- -- 72
2018-11-12 16:00:00 19.1 10 Este 17 Este 0 -- -- 64
2018-11-12 15:00:00 19.6 12 Este 19 Sudeste 0 -- -- 53
2018-11-12 14:00:00 20.9 9 Este 16 Sudeste 0 -- -- 46
2018-11-12 13:00:00 19.1 7 Sudeste 13 Sudeste 0 -- -- 53
2018-11-12 12:00:00 18.2 4 Sudeste 9 Sudeste 0 -- -- 57
2018-11-12 11:00:00 15.7 3 Sudoeste 5 Sudoeste 0 -- -- 61
2018-11-12 10:00:00 12.7 0 Calma 7 Noroeste 0 -- -- 71
2018-11-12 09:00:00 10.2 5 Noroeste 11 Norte 0 -- -- 75
2018-11-12 08:00:00 9 8 Norte 12 Nordeste 0 -- -- 79
2018-11-12 07:00:00 8.5 8 Norte 10 Norte 0 -- -- 81
2018-11-12 06:00:00 9.4 9 Noroeste 12 Noroeste 0 -- -- 75
2018-11-12 05:00:00 9.7 9 Noroeste 13 Noroeste 0 -- -- 76
2018-11-12 04:00:00 9.1 4 Nordeste 9 Noroeste 0 -- -- 81
2018-11-12 03:00:00 9.7 6 Oeste 13 Norte 0 -- -- 80
2018-11-12 02:00:00 10.3 6 Norte 9 Noroeste 0 -- -- 83
2018-11-12 01:00:00 10.3 2 Oeste 9 Noroeste 0 -- -- 81
2018-11-12 00:00:00 10.7 7 Nordeste 9 Noroeste 0 -- -- 86
2018-11-11 23:00:00 11.2 3 Norte 8 Noroeste 0 -- -- 83
2018-11-11 22:00:00 11.7 6 Noroeste 9 Noroeste 0 -- -- 83
2018-11-11 21:00:00 12.3 7 Noroeste 9 Noroeste 0 -- -- 87
2018-11-11 20:00:00 13.1 3 Noroeste 8 Nordeste 0 -- -- 84
2018-11-11 19:00:00 14.1 6 Este 16 Este 0 -- -- 84
2018-11-11 18:00:00 16 11 Este 24 Este 0 -- -- 75
2018-11-11 17:00:00 19.2 15 Este 24 Este 0 -- -- 60
2018-11-11 16:00:00 21.3 15 Este 26 Este 0 -- -- 50
2018-11-11 15:00:00 21.4 17 Este 29 Este 0 -- -- 49
2018-11-11 14:00:00 22 17 Este 27 Este 0 -- -- 45
2018-11-11 13:00:00 22.3 13 Este 21 Este 0 -- -- 45
2018-11-11 12:00:00 21 6 Este 14 Este 0 -- -- 50
2018-11-11 11:00:00 18.9 6 Sudeste 9 Este 0 -- -- 57
2018-11-11 10:00:00 15.1 2 Noroeste 5 Sudoeste 0 -- -- 69
2018-11-11 09:00:00 12.9 4 Este 9 Nordeste 0 -- -- 76
2018-11-11 08:00:00 10.5 5 Oeste 12 Noroeste 0 -- -- 82
2018-11-11 07:00:00 10.8 8 Norte 11 Noroeste 0 -- -- 80
2018-11-11 06:00:00 11 4 Oeste 8 Noroeste 0 -- -- 79
2018-11-11 05:00:00 11.1 5 Noroeste 9 Noroeste 0 -- -- 78
2018-11-11 04:00:00 11.1 6 Noroeste 9 Noroeste 0 -- -- 77
2018-11-11 03:00:00 11.3 4 Noroeste 11 Noroeste 0 -- -- 76
2018-11-11 02:00:00 12.1 9 Oeste 15 Oeste 0 -- -- 75
2018-11-11 01:00:00 12.8 5 Sudeste 26 Oeste 0 -- -- 71
2018-11-11 00:00:00 13.7 20 Oeste 35 Oeste 0 -- -- 69
2018-11-10 23:00:00 14.3 27 Oeste 48 Oeste 0 -- -- 67
2018-11-10 22:00:00 15.5 34 Oeste 48 Oeste 0 -- -- 63
2018-11-10 21:00:00 15.8 26 Oeste 46 Oeste 0 -- -- 60
2018-11-10 20:00:00 17.3 26 Oeste 48 Oeste 0 -- -- 54
2018-11-10 19:00:00 17.7 27 Oeste 34 Sudoeste 0 -- -- 53
2018-11-10 18:00:00 20 13 Oeste 25 Oeste 0 -- -- 45
2018-11-10 17:00:00 23.1 16 Sudoeste 28 Sudoeste 0 -- -- 41
2018-11-10 16:00:00 24.1 14 Sudoeste 21 Sudoeste 0 -- -- 39
2018-11-10 15:00:00 22.9 13 Sudoeste 29 Sudoeste 0 -- -- 43
2018-11-10 14:00:00 21.8 18 Sudoeste 25 Sudoeste 0 -- -- 44
2018-11-10 13:00:00 20.9 18 Sudoeste 31 Sudoeste 0 -- -- 46
2018-11-10 12:00:00 18.9 22 Sudoeste 32 Sudoeste 0 -- -- 50
2018-11-10 11:00:00 16.9 23 Sudoeste 28 Sudoeste 0 -- -- 54
2018-11-10 10:00:00 15 15 Sudoeste 22 Sudoeste 0 -- -- 59
2018-11-10 09:00:00 12.5 14 Sudoeste 23 Sudoeste 0 -- -- 65
2018-11-10 08:00:00 11.1 6 Oeste 24 Sudoeste 0 -- -- 67
2018-11-10 07:00:00 11.2 15 Oeste 28 Oeste 0 -- -- 65
2018-11-10 06:00:00 10.9 2 Sur 13 Noroeste 0 -- -- 66
2018-11-10 05:00:00 10.9 5 Oeste 27 Oeste 0 -- -- 65
2018-11-10 04:00:00 11.6 23 Oeste 41 Oeste 0 -- -- 61
2018-11-10 03:00:00 11.5 37 Oeste 61 Oeste 0 -- -- 61
2018-11-10 02:00:00 11.8 41 Oeste 60 Oeste 0 -- -- 59
2018-11-10 01:00:00 12.4 32 Oeste 46 Oeste 0 -- -- 55
2018-11-10 00:00:00 12.4 40 Oeste 60 Oeste 0 -- -- 55
2018-11-09 23:00:00 12.1 31 Oeste 54 Oeste 0 -- -- 55
2018-11-09 22:00:00 12.1 29 Oeste 51 Oeste 0 -- -- 54
2018-11-09 21:00:00 12 31 Oeste 60 Oeste 0 -- -- 52
2018-11-09 20:00:00 11.3 26 Oeste 60 Oeste 0 -- -- 57
2018-11-09 19:00:00 12.1 32 Oeste 53 Oeste 0 -- -- 52
2018-11-09 18:00:00 12.6 21 Oeste 39 Oeste 0 -- -- 51
2018-11-09 17:00:00 13.6 24 Oeste 50 Oeste 0 -- -- 49
2018-11-09 16:00:00 15.6 30 Oeste 57 Oeste 0 -- -- 44
2018-11-09 15:00:00 15.5 37 Oeste 58 Oeste 0 -- -- 43
2018-11-09 14:00:00 15.3 35 Oeste 63 Oeste 0 -- -- 44
2018-11-09 13:00:00 14.5 46 Oeste 71 Oeste 0 -- -- 45
2018-11-09 12:00:00 13.7 51 Oeste 72 Oeste 0 -- -- 48
2018-11-09 11:00:00 12.7 43 Oeste 74 Oeste 0 -- -- 53
2018-11-09 10:00:00 11.4 46 Oeste 70 Oeste 0 -- -- 55
2018-11-09 09:00:00 9.9 31 Oeste 60 Oeste 0 -- -- 60
2018-11-09 08:00:00 8.9 42 Oeste 58 Oeste 0 -- -- 62
2018-11-09 07:00:00 8.7 36 Oeste 66 Oeste 0 -- -- 64
2018-11-09 06:00:00 9.1 43 Oeste 60 Oeste 0 -- -- 63
2018-11-09 05:00:00 9.4 25 Oeste 54 Oeste 0 -- -- 67
2018-11-09 04:00:00 9.9 31 Oeste 44 Oeste 0 -- -- 67
2018-11-09 03:00:00 10 9 Sudoeste 49 Noroeste 0 -- -- 72
2018-11-09 02:00:00 11.5 36 Noroeste 71 Noroeste 0 -- -- 64
2018-11-09 01:00:00 12.6 15 Oeste 41 Oeste 0 -- -- 67
2018-11-09 00:00:00 12.8 30 Oeste 38 Oeste 0 -- -- 70